createdAt,value
2018-07-27T00:04:17.514Z,100458.27
2018-07-27T00:09:15.034Z,100459.20
2018-07-27T00:14:12.494Z,100464.91
2018-07-27T00:19:09.990Z,100460.09
2018-07-27T00:24:07.453Z,100457.25
2018-07-27T00:34:10.933Z,100465.86
2018-07-27T00:39:09.557Z,100463.20
2018-07-27T00:44:07.449Z,100460.23
2018-07-27T00:49:04.986Z,100456.23
2018-07-27T00:54:02.455Z,100449.98
2018-07-27T00:59:02.295Z,100455.90
2018-07-27T01:03:59.772Z,100454.19
2018-07-27T01:08:57.222Z,100446.55
2018-07-27T01:13:54.678Z,100442.87
2018-07-27T01:18:52.219Z,100433.37
2018-07-27T01:23:49.693Z,100436.17
2018-07-27T01:28:47.152Z,100435.47
2018-07-27T01:33:44.634Z,100436.00
2018-07-27T01:38:42.105Z,100426.70
2018-07-27T01:43:39.552Z,100424.37
2018-07-27T01:48:37.057Z,100427.45
2018-07-27T01:53:34.518Z,100418.72
2018-07-27T01:58:31.969Z,100422.72
2018-07-27T02:03:29.417Z,100424.45
2018-07-27T02:08:26.902Z,100424.45
2018-07-27T02:13:24.390Z,100415.92
2018-07-27T02:18:21.890Z,100419.98
2018-07-27T02:23:19.393Z,100415.70
2018-07-27T02:28:16.962Z,100404.51
2018-07-27T02:33:14.433Z,100404.82
2018-07-27T02:38:11.893Z,100394.02
2018-07-27T02:43:09.418Z,100391.77
2018-07-27T02:48:06.886Z,100393.69
2018-07-27T02:53:04.482Z,100394.57
2018-07-27T02:58:01.974Z,100392.05
2018-07-27T03:02:59.494Z,100389.73
2018-07-27T03:07:56.989Z,100387.13
2018-07-27T03:12:54.551Z,100392.17
2018-07-27T03:17:52.075Z,100390.59
2018-07-27T03:22:49.570Z,100388.70
2018-07-27T03:27:47.074Z,100382.84
2018-07-27T03:32:44.628Z,100388.44
2018-07-27T03:37:42.126Z,100394.56
2018-07-27T03:42:39.722Z,100390.44
2018-07-27T03:47:37.201Z,100386.06
2018-07-27T03:52:34.703Z,100394.33
2018-07-27T03:57:32.231Z,100393.75
2018-07-27T04:02:29.755Z,100394.38
2018-07-27T04:07:27.289Z,100398.00
2018-07-27T04:12:26.714Z,100395.77
2018-07-27T04:17:24.291Z,100398.99
2018-07-27T04:22:22.266Z,100400.68
2018-07-27T04:27:19.958Z,100401.44
2018-07-27T04:32:17.482Z,100392.27
2018-07-27T04:37:15.014Z,100393.79
2018-07-27T04:42:12.511Z,100397.81
2018-07-27T04:47:10.036Z,100400.17
2018-07-27T04:52:07.523Z,100395.25
2018-07-27T04:57:05.100Z,100395.55
2018-07-27T05:02:02.638Z,100392.75
2018-07-27T05:07:00.134Z,100386.45
2018-07-27T05:11:57.809Z,100389.87
2018-07-27T05:16:55.297Z,100393.48
2018-07-27T05:21:52.777Z,100387.81
2018-07-27T05:26:50.271Z,100395.77
2018-07-27T05:31:48.308Z,100392.84
2018-07-27T05:36:45.810Z,100389.08
2018-07-27T05:41:43.354Z,100398.71
2018-07-27T05:46:40.942Z,100401.92
2018-07-27T05:51:38.426Z,100404.50
2018-07-27T05:56:35.942Z,100401.82
2018-07-27T06:01:33.438Z,100400.03
2018-07-27T06:06:30.899Z,100401.47
2018-07-27T06:11:28.393Z,100395.63
2018-07-27T06:16:25.893Z,100399.87
2018-07-27T06:21:23.491Z,100395.36
2018-07-27T06:26:20.994Z,100395.39
2018-07-27T06:31:18.569Z,100389.50
2018-07-27T06:36:17.612Z,100386.77
2018-07-27T06:41:16.470Z,100392.27
2018-07-27T06:46:14.014Z,100388.87
2018-07-27T06:51:11.504Z,100394.21
2018-07-27T06:56:09.076Z,100395.54
2018-07-27T07:01:06.666Z,100404.34
2018-07-27T07:06:04.214Z,100396.75
2018-07-27T07:11:01.709Z,100397.98
2018-07-27T07:15:59.207Z,100394.09
2018-07-27T07:20:56.682Z,100405.44
2018-07-27T07:25:54.343Z,100391.61
2018-07-27T07:30:51.707Z,100395.67
2018-07-27T07:35:49.191Z,100399.80
2018-07-27T07:40:46.678Z,100390.47
2018-07-27T07:45:44.164Z,100386.06
2018-07-27T07:50:41.670Z,100385.37
2018-07-27T07:55:39.245Z,100380.12
2018-07-27T08:00:36.769Z,100381.88
2018-07-27T08:05:34.333Z,100367.31
2018-07-27T08:10:31.802Z,100369.70
2018-07-27T08:15:29.290Z,100356.42
2018-07-27T08:20:26.768Z,100359.34
2018-07-27T08:25:24.298Z,100351.80
2018-07-27T08:30:21.829Z,100358.13
2018-07-27T08:35:19.347Z,100346.79
2018-07-27T08:40:16.892Z,100335.40
2018-07-27T08:45:14.478Z,100337.83
2018-07-27T08:50:11.993Z,100332.86
2018-07-27T08:55:09.499Z,100328.36
2018-07-27T09:00:07.039Z,100322.27
2018-07-27T09:05:04.603Z,100325.01
2018-07-27T09:10:02.104Z,100325.86
2018-07-27T09:14:59.678Z,100321.63
2018-07-27T09:19:57.169Z,100311.86
2018-07-27T09:24:54.993Z,100312.31
2018-07-27T09:29:53.400Z,100303.92
2018-07-27T09:34:57.530Z,100306.31
2018-07-27T09:39:55.171Z,100301.31
2018-07-27T09:44:52.762Z,100294.91
2018-07-27T09:49:50.267Z,100293.12
2018-07-27T09:54:47.750Z,100262.77
2018-07-27T09:59:46.301Z,100278.61
2018-07-27T10:04:43.798Z,100277.44
2018-07-27T10:09:42.558Z,100271.12
2018-07-27T10:14:46.761Z,100258.50
2018-07-27T10:19:47.125Z,100256.73
2018-07-27T10:24:44.666Z,100253.09
2018-07-27T10:29:43.190Z,100251.23
2018-07-27T10:34:40.712Z,100245.03
2018-07-27T10:39:38.197Z,100235.30
2018-07-27T10:44:35.735Z,100234.70
2018-07-27T10:49:33.402Z,100224.59
2018-07-27T10:54:30.905Z,100221.06
2018-07-27T10:59:29.437Z,100219.54
2018-07-27T11:04:26.944Z,100208.38
2018-07-27T11:09:24.493Z,100207.46
2018-07-27T11:14:22.015Z,100196.13
2018-07-27T11:19:19.559Z,100192.44
2018-07-27T11:24:17.115Z,100186.83
2018-07-27T11:29:17.659Z,100173.41
2018-07-27T11:34:15.482Z,100178.92
2018-07-27T11:39:13.117Z,100177.23
2018-07-27T11:44:10.711Z,100174.80
2018-07-27T11:49:08.258Z,100172.77
2018-07-27T11:54:05.814Z,100159.67
2018-07-27T11:59:14.783Z,100154.78
2018-07-27T12:04:12.478Z,100147.02
2018-07-27T12:09:11.058Z,100142.36
2018-07-27T12:14:08.848Z,100136.93
2018-07-27T12:19:06.143Z,100120.27
2018-07-27T12:24:03.657Z,100118.46
2018-07-27T12:29:10.546Z,100117.87
2018-07-27T12:34:08.080Z,100119.09
2018-07-27T12:39:08.542Z,100096.83
2018-07-27T12:44:06.098Z,100098.80
2018-07-27T12:49:03.748Z,100080.58
2018-07-27T12:54:01.254Z,100087.16
2018-07-27T12:59:02.641Z,100082.02
2018-07-27T13:04:00.253Z,100082.68
2018-07-27T13:08:57.796Z,100080.80
2018-07-27T13:13:55.333Z,100077.68
2018-07-27T13:18:53.037Z,100073.23
2018-07-27T13:23:55.909Z,100057.70
2018-07-27T13:28:56.925Z,100056.58
2018-07-27T13:34:05.575Z,100043.89
2018-07-27T13:39:03.936Z,100037.14
2018-07-27T13:44:03.837Z,100031.14
2018-07-27T13:49:06.463Z,100014.92
2018-07-27T13:54:06.454Z,100025.87
2018-07-27T13:59:09.638Z,100005.09
2018-07-27T14:04:14.789Z,100001.41
2018-07-27T14:09:17.570Z,99993.03
2018-07-27T14:14:22.799Z,99993.55
2018-07-27T14:24:35.963Z,99981.14
2018-07-27T14:29:40.299Z,99984.80
2018-07-27T14:34:40.538Z,99977.63
2018-07-27T14:39:41.081Z,99970.31
2018-07-27T14:44:42.023Z,99972.95
2018-07-27T14:49:44.794Z,99963.20
2018-07-27T14:54:44.952Z,99964.42
2018-07-27T14:59:54.405Z,99957.82
2018-07-27T15:04:54.911Z,99957.26
2018-07-27T15:09:54.433Z,99939.95
2018-07-27T15:14:57.535Z,99931.41
2018-07-27T15:19:58.592Z,99927.19
2018-07-27T15:24:59.881Z,99921.97
2018-07-27T15:30:05.941Z,99916.90
2018-07-27T15:35:05.100Z,99915.16
2018-07-27T15:40:02.690Z,99908.50
2018-07-27T15:45:00.178Z,99910.25
2018-07-27T15:49:57.696Z,99907.20
2018-07-27T15:54:55.252Z,99899.48
2018-07-27T15:59:52.807Z,99895.48
2018-07-27T16:04:50.369Z,99902.19
2018-07-27T16:09:47.903Z,99896.92
2018-07-27T16:14:45.426Z,99894.83
2018-07-27T16:19:42.982Z,99887.00
2018-07-27T16:24:40.493Z,99880.08
2018-07-27T16:29:39.014Z,99869.56
2018-07-27T16:34:43.762Z,99864.95
2018-07-27T16:39:41.398Z,99860.05
2018-07-27T16:44:38.918Z,99862.02
2018-07-27T16:49:37.984Z,99864.81
2018-07-27T16:54:35.535Z,99865.34
2018-07-27T16:59:36.652Z,99867.93
2018-07-27T17:04:35.353Z,99860.26
2018-07-27T17:09:34.651Z,99862.30
2018-07-27T17:14:33.445Z,99859.43
2018-07-27T17:19:31.305Z,99858.78
2018-07-27T17:24:30.183Z,99859.69
2018-07-27T17:29:32.440Z,99855.01
2018-07-27T17:34:30.927Z,99854.19
2018-07-27T17:39:31.017Z,99850.60
2018-07-27T17:44:30.198Z,99857.88
2018-07-27T17:49:28.542Z,99863.41
2018-07-27T17:54:26.117Z,99865.88
2018-07-27T17:59:26.759Z,99875.44
2018-07-27T18:04:24.414Z,99868.35
2018-07-27T18:09:21.927Z,99866.70
2018-07-27T18:14:19.437Z,99861.77
2018-07-27T18:19:16.969Z,99866.36
2018-07-27T18:24:14.466Z,99866.53
2018-07-27T18:29:15.592Z,99872.59
2018-07-27T18:34:13.256Z,99873.39
2018-07-27T18:39:11.891Z,99867.77
2018-07-27T18:44:09.423Z,99858.83
2018-07-27T18:49:07.085Z,99861.48
2018-07-27T18:54:04.921Z,99861.39
2018-07-27T18:59:08.255Z,99854.66
2018-07-27T19:04:07.366Z,99863.95
2018-07-27T19:09:08.420Z,99856.87
2018-07-27T19:14:08.527Z,99854.80
2018-07-27T19:19:06.944Z,99854.30
2018-07-27T19:24:07.278Z,99856.89
2018-07-27T19:29:05.646Z,99859.86
2018-07-27T19:34:04.082Z,99857.61
2018-07-27T19:39:01.942Z,99854.89
2018-07-27T19:43:59.915Z,99855.10
2018-07-27T19:48:58.092Z,99859.65
2018-07-27T19:53:56.443Z,99864.59
2018-07-27T19:58:54.624Z,99860.77
2018-07-27T20:03:52.621Z,99861.39
2018-07-27T20:08:50.683Z,99854.48
2018-07-27T20:13:49.352Z,99856.94
2018-07-27T20:18:47.639Z,99860.94
2018-07-27T20:23:46.746Z,99874.78
2018-07-27T20:28:45.093Z,99868.78
2018-07-27T20:33:43.234Z,99860.64
2018-07-27T20:38:41.413Z,99857.94
2018-07-27T20:43:39.524Z,99852.86
2018-07-27T20:48:37.719Z,99858.44
2018-07-27T20:53:36.959Z,99867.98
2018-07-27T20:58:34.983Z,99865.11
2018-07-27T21:03:32.971Z,99863.25
2018-07-27T21:08:30.876Z,99864.00
2018-07-27T21:13:28.374Z,99864.15
2018-07-27T21:18:25.843Z,99865.73
2018-07-27T21:23:28.365Z,99863.41
2018-07-27T21:28:26.032Z,99865.84
2018-07-27T21:33:23.506Z,99867.36
2018-07-27T21:38:21.663Z,99865.02
2018-07-27T21:43:19.221Z,99873.48
2018-07-27T21:48:16.677Z,99873.57
2018-07-27T21:53:16.756Z,99867.67
2018-07-27T21:58:14.234Z,99863.86
2018-07-27T22:03:11.718Z,99871.09
2018-07-27T22:08:09.251Z,99871.30
2018-07-27T22:13:06.753Z,99861.06
2018-07-27T22:18:04.308Z,99858.44
2018-07-27T22:23:15.067Z,99857.34
2018-07-27T22:28:12.627Z,99852.64
2018-07-27T22:33:10.094Z,99851.14
2018-07-27T22:38:07.568Z,99853.38
2018-07-27T22:43:05.128Z,99848.20
2018-07-27T22:48:02.587Z,99842.56
2018-07-27T22:53:09.706Z,99841.53
2018-07-27T22:58:07.318Z,99847.89
2018-07-27T23:03:04.992Z,99835.11
2018-07-27T23:08:02.520Z,99833.20
2018-07-27T23:13:00.040Z,99830.36
2018-07-27T23:17:57.511Z,99833.20
2018-07-27T23:23:00.000Z,99836.16
2018-07-27T23:27:57.560Z,99829.48
2018-07-27T23:32:55.017Z,99820.67
2018-07-27T23:37:52.465Z,99817.72
2018-07-27T23:42:49.943Z,99812.41
2018-07-27T23:47:47.458Z,99808.17
2018-07-27T23:52:45.303Z,99797.56
2018-07-27T23:57:42.891Z,99797.31
